sensor_id;sensor_type;location;lat;lon;timestamp;temperature;humidity
72106;SHT30;59975;47.646;18.318;2023-03-23T00:02:26;10.91;62.30
72106;SHT30;59975;47.646;18.318;2023-03-23T00:04:52;10.86;62.40
72106;SHT30;59975;47.646;18.318;2023-03-23T00:07:22;10.88;62.53
72106;SHT30;59975;47.646;18.318;2023-03-23T00:09:49;10.89;62.39
72106;SHT30;59975;47.646;18.318;2023-03-23T00:12:25;10.92;62.43
72106;SHT30;59975;47.646;18.318;2023-03-23T00:15:01;10.91;62.47
72106;SHT30;59975;47.646;18.318;2023-03-23T00:17:28;10.92;62.66
72106;SHT30;59975;47.646;18.318;2023-03-23T00:19:54;10.86;62.98
72106;SHT30;59975;47.646;18.318;2023-03-23T00:22:21;10.92;62.57
72106;SHT30;59975;47.646;18.318;2023-03-23T00:24:50;10.93;62.55
72106;SHT30;59975;47.646;18.318;2023-03-23T00:27:17;10.95;62.29
72106;SHT30;59975;47.646;18.318;2023-03-23T00:29:43;10.93;62.39
72106;SHT30;59975;47.646;18.318;2023-03-23T00:32:11;11.02;61.79
72106;SHT30;59975;47.646;18.318;2023-03-23T00:34:40;11.05;61.58
72106;SHT30;59975;47.646;18.318;2023-03-23T00:37:07;11.00;61.73
72106;SHT30;59975;47.646;18.318;2023-03-23T00:39:33;10.98;61.86
72106;SHT30;59975;47.646;18.318;2023-03-23T00:42:02;11.03;61.79
72106;SHT30;59975;47.646;18.318;2023-03-23T00:44:30;10.99;62.02
72106;SHT30;59975;47.646;18.318;2023-03-23T00:46:57;10.99;62.16
72106;SHT30;59975;47.646;18.318;2023-03-23T00:49:24;11.02;61.95
72106;SHT30;59975;47.646;18.318;2023-03-23T00:51:54;10.98;62.19
72106;SHT30;59975;47.646;18.318;2023-03-23T00:54:20;11.03;62.09
72106;SHT30;59975;47.646;18.318;2023-03-23T00:56:46;11.03;62.12
72106;SHT30;59975;47.646;18.318;2023-03-23T00:59:12;10.98;62.41
72106;SHT30;59975;47.646;18.318;2023-03-23T01:01:38;10.96;62.33
72106;SHT30;59975;47.646;18.318;2023-03-23T01:04:03;10.98;62.36
72106;SHT30;59975;47.646;18.318;2023-03-23T01:06:36;10.92;62.65
72106;SHT30;59975;47.646;18.318;2023-03-23T01:09:10;10.92;62.85
72106;SHT30;59975;47.646;18.318;2023-03-23T01:11:36;10.80;63.50
72106;SHT30;59975;47.646;18.318;2023-03-23T01:14:02;10.85;63.43
72106;SHT30;59975;47.646;18.318;2023-03-23T01:16:28;10.82;63.63
72106;SHT30;59975;47.646;18.318;2023-03-23T01:18:54;10.72;64.24
72106;SHT30;59975;47.646;18.318;2023-03-23T01:21:20;10.73;63.48
72106;SHT30;59975;47.646;18.318;2023-03-23T01:23:46;10.73;63.55
72106;SHT30;59975;47.646;18.318;2023-03-23T01:26:15;10.79;63.21
72106;SHT30;59975;47.646;18.318;2023-03-23T01:28:42;10.72;63.54
72106;SHT30;59975;47.646;18.318;2023-03-23T01:31:10;10.75;63.22
72106;SHT30;59975;47.646;18.318;2023-03-23T01:33:41;10.73;62.95
72106;SHT30;59975;47.646;18.318;2023-03-23T01:36:11;10.82;62.59
72106;SHT30;59975;47.646;18.318;2023-03-23T01:38:37;10.82;62.47
72106;SHT30;59975;47.646;18.318;2023-03-23T01:41:03;10.86;62.51
72106;SHT30;59975;47.646;18.318;2023-03-23T01:43:29;10.86;62.31
72106;SHT30;59975;47.646;18.318;2023-03-23T01:45:55;10.83;62.09
72106;SHT30;59975;47.646;18.318;2023-03-23T01:48:31;10.96;61.70
72106;SHT30;59975;47.646;18.318;2023-03-23T01:51:02;10.93;61.83
72106;SHT30;59975;47.646;18.318;2023-03-23T01:53:34;10.96;61.65
72106;SHT30;59975;47.646;18.318;2023-03-23T01:56:03;10.95;61.74
72106;SHT30;59975;47.646;18.318;2023-03-23T01:58:31;10.85;61.84
72106;SHT30;59975;47.646;18.318;2023-03-23T02:00:59;10.93;61.55
72106;SHT30;59975;47.646;18.318;2023-03-23T02:03:28;10.89;61.79
72106;SHT30;59975;47.646;18.318;2023-03-23T02:05:56;10.86;61.47
72106;SHT30;59975;47.646;18.318;2023-03-23T02:08:24;10.86;61.37
72106;SHT30;59975;47.646;18.318;2023-03-23T02:10:52;10.76;61.83
72106;SHT30;59975;47.646;18.318;2023-03-23T02:13:17;10.80;61.68
72106;SHT30;59975;47.646;18.318;2023-03-23T02:18:34;10.75;61.89
72106;SHT30;59975;47.646;18.318;2023-03-23T02:21:28;10.73;61.80
72106;SHT30;59975;47.646;18.318;2023-03-23T02:26:58;10.68;61.91
72106;SHT30;59975;47.646;18.318;2023-03-23T02:32:21;10.71;61.57
72106;SHT30;59975;47.646;18.318;2023-03-23T02:34:53;10.72;61.47
72106;SHT30;59975;47.646;18.318;2023-03-23T02:37:24;10.72;61.45
72106;SHT30;59975;47.646;18.318;2023-03-23T02:40:06;10.72;61.32
72106;SHT30;59975;47.646;18.318;2023-03-23T02:42:43;10.69;61.32
72106;SHT30;59975;47.646;18.318;2023-03-23T02:45:11;10.62;61.45
72106;SHT30;59975;47.646;18.318;2023-03-23T02:47:38;10.75;61.13
72106;SHT30;59975;47.646;18.318;2023-03-23T02:50:08;10.72;61.04
72106;SHT30;59975;47.646;18.318;2023-03-23T02:52:36;10.71;61.18
72106;SHT30;59975;47.646;18.318;2023-03-23T02:55:04;10.68;61.24
72106;SHT30;59975;47.646;18.318;2023-03-23T02:57:30;10.75;61.01
72106;SHT30;59975;47.646;18.318;2023-03-23T02:59:56;10.73;60.88
72106;SHT30;59975;47.646;18.318;2023-03-23T03:02:25;10.73;60.94
72106;SHT30;59975;47.646;18.318;2023-03-23T03:05:01;10.66;61.18
72106;SHT30;59975;47.646;18.318;2023-03-23T03:07:35;10.64;61.33
72106;SHT30;59975;47.646;18.318;2023-03-23T03:12:57;10.54;61.69
72106;SHT30;59975;47.646;18.318;2023-03-23T03:15:33;10.54;61.54
72106;SHT30;59975;47.646;18.318;2023-03-23T03:18:03;10.62;61.31
72106;SHT30;59975;47.646;18.318;2023-03-23T03:20:31;10.64;61.28
72106;SHT30;59975;47.646;18.318;2023-03-23T03:22:59;10.59;61.58
72106;SHT30;59975;47.646;18.318;2023-03-23T03:25:26;10.54;61.73
72106;SHT30;59975;47.646;18.318;2023-03-23T03:27:54;10.49;61.87
72106;SHT30;59975;47.646;18.318;2023-03-23T03:30:25;10.57;61.45
72106;SHT30;59975;47.646;18.318;2023-03-23T03:32:52;10.52;61.51
72106;SHT30;59975;47.646;18.318;2023-03-23T03:35:22;10.51;61.79
72106;SHT30;59975;47.646;18.318;2023-03-23T03:37:49;10.57;61.39
72106;SHT30;59975;47.646;18.318;2023-03-23T03:40:18;10.58;61.40
72106;SHT30;59975;47.646;18.318;2023-03-23T03:42:44;10.55;61.56
72106;SHT30;59975;47.646;18.318;2023-03-23T03:45:19;10.61;61.54
72106;SHT30;59975;47.646;18.318;2023-03-23T03:47:44;10.51;61.69
72106;SHT30;59975;47.646;18.318;2023-03-23T03:50:10;10.54;61.83
72106;SHT30;59975;47.646;18.318;2023-03-23T03:52:36;10.58;61.37
72106;SHT30;59975;47.646;18.318;2023-03-23T03:55:04;10.59;61.45
72106;SHT30;59975;47.646;18.318;2023-03-23T03:57:30;10.71;61.14
72106;SHT30;59975;47.646;18.318;2023-03-23T03:59:55;10.62;61.28
72106;SHT30;59975;47.646;18.318;2023-03-23T04:02:21;10.62;61.43
72106;SHT30;59975;47.646;18.318;2023-03-23T04:04:48;10.59;61.49
72106;SHT30;59975;47.646;18.318;2023-03-23T04:07:14;10.59;61.33
72106;SHT30;59975;47.646;18.318;2023-03-23T04:09:45;10.58;61.48
72106;SHT30;59975;47.646;18.318;2023-03-23T04:12:15;10.48;61.94
72106;SHT30;59975;47.646;18.318;2023-03-23T04:14:40;10.47;61.86
72106;SHT30;59975;47.646;18.318;2023-03-23T04:17:06;10.49;61.90
72106;SHT30;59975;47.646;18.318;2023-03-23T04:19:35;10.54;61.48
72106;SHT30;59975;47.646;18.318;2023-03-23T04:22:02;10.55;61.77
72106;SHT30;59975;47.646;18.318;2023-03-23T04:24:28;10.54;61.54
72106;SHT30;59975;47.646;18.318;2023-03-23T04:26:56;10.54;61.50
72106;SHT30;59975;47.646;18.318;2023-03-23T04:29:22;10.48;61.75
72106;SHT30;59975;47.646;18.318;2023-03-23T04:31:47;10.45;61.66
72106;SHT30;59975;47.646;18.318;2023-03-23T04:34:16;10.51;61.54
72106;SHT30;59975;47.646;18.318;2023-03-23T04:36:43;10.55;61.40
72106;SHT30;59975;47.646;18.318;2023-03-23T04:39:09;10.42;61.87
72106;SHT30;59975;47.646;18.318;2023-03-23T04:41:39;10.45;61.57
72106;SHT30;59975;47.646;18.318;2023-03-23T04:44:06;10.45;61.90
72106;SHT30;59975;47.646;18.318;2023-03-23T04:46:43;10.42;61.88
72106;SHT30;59975;47.646;18.318;2023-03-23T04:49:10;10.44;61.72
72106;SHT30;59975;47.646;18.318;2023-03-23T04:51:35;10.44;61.76
72106;SHT30;59975;47.646;18.318;2023-03-23T04:54:01;10.41;61.72
72106;SHT30;59975;47.646;18.318;2023-03-23T04:56:27;10.47;61.57
72106;SHT30;59975;47.646;18.318;2023-03-23T04:58:52;10.47;61.57
72106;SHT30;59975;47.646;18.318;2023-03-23T05:01:18;10.47;61.53
72106;SHT30;59975;47.646;18.318;2023-03-23T05:03:44;10.41;61.97
72106;SHT30;59975;47.646;18.318;2023-03-23T05:06:10;10.52;61.47
72106;SHT30;59975;47.646;18.318;2023-03-23T05:08:36;10.49;61.56
72106;SHT30;59975;47.646;18.318;2023-03-23T05:11:05;10.54;61.49
72106;SHT30;59975;47.646;18.318;2023-03-23T05:13:31;10.51;61.76
72106;SHT30;59975;47.646;18.318;2023-03-23T05:15:57;10.58;61.38
72106;SHT30;59975;47.646;18.318;2023-03-23T05:18:22;10.65;61.28
72106;SHT30;59975;47.646;18.318;2023-03-23T05:20:48;10.66;61.42
72106;SHT30;59975;47.646;18.318;2023-03-23T05:23:14;10.71;61.22
72106;SHT30;59975;47.646;18.318;2023-03-23T05:25:40;10.69;61.81
72106;SHT30;59975;47.646;18.318;2023-03-23T05:28:07;10.78;61.15
72106;SHT30;59975;47.646;18.318;2023-03-23T05:30:34;10.80;61.36
72106;SHT30;59975;47.646;18.318;2023-03-23T05:33:00;10.82;61.59
72106;SHT30;59975;47.646;18.318;2023-03-23T05:35:25;10.85;61.65
72106;SHT30;59975;47.646;18.318;2023-03-23T05:37:52;10.92;61.08
72106;SHT30;59975;47.646;18.318;2023-03-23T05:40:19;11.00;61.15
72106;SHT30;59975;47.646;18.318;2023-03-23T05:42:45;11.10;60.80
72106;SHT30;59975;47.646;18.318;2023-03-23T05:45:12;11.15;60.59
72106;SHT30;59975;47.646;18.318;2023-03-23T05:47:40;11.19;60.46
72106;SHT30;59975;47.646;18.318;2023-03-23T05:50:07;11.24;60.08
72106;SHT30;59975;47.646;18.318;2023-03-23T05:52:34;11.26;60.35
72106;SHT30;59975;47.646;18.318;2023-03-23T05:55:01;11.36;59.69
72106;SHT30;59975;47.646;18.318;2023-03-23T05:57:26;11.43;59.74
72106;SHT30;59975;47.646;18.318;2023-03-23T05:59:53;11.44;59.68
72106;SHT30;59975;47.646;18.318;2023-03-23T06:02:18;11.56;59.23
72106;SHT30;59975;47.646;18.318;2023-03-23T06:04:44;11.70;59.05
72106;SHT30;59975;47.646;18.318;2023-03-23T06:07:10;11.85;58.23
72106;SHT30;59975;47.646;18.318;2023-03-23T06:09:40;11.95;58.04
72106;SHT30;59975;47.646;18.318;2023-03-23T06:12:07;12.04;58.23
72106;SHT30;59975;47.646;18.318;2023-03-23T06:14:33;12.12;57.87
72106;SHT30;59975;47.646;18.318;2023-03-23T06:16:59;12.24;57.54
72106;SHT30;59975;47.646;18.318;2023-03-23T06:19:24;12.32;57.18
72106;SHT30;59975;47.646;18.318;2023-03-23T06:21:52;12.34;57.39
72106;SHT30;59975;47.646;18.318;2023-03-23T06:24:17;12.52;57.17
72106;SHT30;59975;47.646;18.318;2023-03-23T06:26:43;12.56;56.71
72106;SHT30;59975;47.646;18.318;2023-03-23T06:29:09;12.69;56.61
72106;SHT30;59975;47.646;18.318;2023-03-23T06:31:43;12.75;56.39
72106;SHT30;59975;47.646;18.318;2023-03-23T06:34:11;12.90;55.73
72106;SHT30;59975;47.646;18.318;2023-03-23T06:36:40;12.93;55.65
72106;SHT30;59975;47.646;18.318;2023-03-23T06:39:11;12.96;55.87
72106;SHT30;59975;47.646;18.318;2023-03-23T06:41:37;12.96;56.29
72106;SHT30;59975;47.646;18.318;2023-03-23T06:44:09;13.00;55.78
72106;SHT30;59975;47.646;18.318;2023-03-23T06:46:47;13.20;55.35
72106;SHT30;59975;47.646;18.318;2023-03-23T06:49:13;13.20;55.03
72106;SHT30;59975;47.646;18.318;2023-03-23T06:51:44;13.28;54.90
72106;SHT30;59975;47.646;18.318;2023-03-23T06:57:46;13.46;54.93
72106;SHT30;59975;47.646;18.318;2023-03-23T07:00:15;13.48;54.23
72106;SHT30;59975;47.646;18.318;2023-03-23T07:02:41;13.61;53.99
72106;SHT30;59975;47.646;18.318;2023-03-23T07:05:13;13.72;53.80
72106;SHT30;59975;47.646;18.318;2023-03-23T07:07:40;13.81;53.90
72106;SHT30;59975;47.646;18.318;2023-03-23T07:10:08;13.94;53.91
72106;SHT30;59975;47.646;18.318;2023-03-23T07:12:37;13.89;53.39
72106;SHT30;59975;47.646;18.318;2023-03-23T07:15:04;13.95;53.62
72106;SHT30;59975;47.646;18.318;2023-03-23T07:17:33;14.09;53.24
72106;SHT30;59975;47.646;18.318;2023-03-23T07:20:05;14.28;52.28
72106;SHT30;59975;47.646;18.318;2023-03-23T07:54:11;15.83;48.85
72106;SHT30;59975;47.646;18.318;2023-03-23T07:56:46;16.08;48.29
72106;SHT30;59975;47.646;18.318;2023-03-23T08:00:06;16.29;47.83
72106;SHT30;59975;47.646;18.318;2023-03-23T08:02:36;16.29;47.82
72106;SHT30;59975;47.646;18.318;2023-03-23T08:05:18;16.43;47.79
72106;SHT30;59975;47.646;18.318;2023-03-23T08:07:48;16.43;47.39
72106;SHT30;59975;47.646;18.318;2023-03-23T08:10:27;16.41;47.17
72106;SHT30;59975;47.646;18.318;2023-03-23T08:12:59;16.43;47.38
72106;SHT30;59975;47.646;18.318;2023-03-23T08:15:49;16.64;46.62
72106;SHT30;59975;47.646;18.318;2023-03-23T08:18:19;16.73;46.85
72106;SHT30;59975;47.646;18.318;2023-03-23T08:21:18;16.87;46.27
72106;SHT30;59975;47.646;18.318;2023-03-23T08:23:55;17.04;45.75
72106;SHT30;59975;47.646;18.318;2023-03-23T08:36:12;18.03;45.35
72106;SHT30;59975;47.646;18.318;2023-03-23T08:38:41;18.21;44.50
72106;SHT30;59975;47.646;18.318;2023-03-23T08:41:18;18.60;43.50
72106;SHT30;59975;47.646;18.318;2023-03-23T08:43:44;19.01;42.14
72106;SHT30;59975;47.646;18.318;2023-03-23T08:46:13;19.05;43.38
72106;SHT30;59975;47.646;18.318;2023-03-23T08:48:39;19.36;41.47
72106;SHT30;59975;47.646;18.318;2023-03-23T08:51:06;19.45;41.52
72106;SHT30;59975;47.646;18.318;2023-03-23T08:53:32;19.63;41.83
72106;SHT30;59975;47.646;18.318;2023-03-23T08:56:27;19.37;43.45
72106;SHT30;59975;47.646;18.318;2023-03-23T08:58:53;19.52;42.07
72106;SHT30;59975;47.646;18.318;2023-03-23T09:01:20;19.65;40.92
72106;SHT30;59975;47.646;18.318;2023-03-23T09:03:45;19.77;40.42
72106;SHT30;59975;47.646;18.318;2023-03-23T09:06:11;20.13;39.53
72106;SHT30;59975;47.646;18.318;2023-03-23T09:08:39;20.14;39.42
72106;SHT30;59975;47.646;18.318;2023-03-23T12:21:28;21.55;37.48
72106;SHT30;59975;47.646;18.318;2023-03-23T12:24:38;21.54;37.47
72106;SHT30;59975;47.646;18.318;2023-03-23T12:27:13;21.58;37.10
72106;SHT30;59975;47.646;18.318;2023-03-23T12:35:12;21.54;37.61
72106;SHT30;59975;47.646;18.318;2023-03-23T12:43:00;21.64;37.92
72106;SHT30;59975;47.646;18.318;2023-03-23T12:48:16;21.64;38.56
72106;SHT30;59975;47.646;18.318;2023-03-23T12:50:59;21.81;37.71
72106;SHT30;59975;47.646;18.318;2023-03-23T12:53:37;21.87;36.75
72106;SHT30;59975;47.646;18.318;2023-03-23T12:56:33;21.80;37.65
72106;SHT30;59975;47.646;18.318;2023-03-23T13:01:41;21.68;37.98
72106;SHT30;59975;47.646;18.318;2023-03-23T13:04:21;21.54;38.18
72106;SHT30;59975;47.646;18.318;2023-03-23T13:06:48;21.53;37.69
72106;SHT30;59975;47.646;18.318;2023-03-23T13:09:52;21.47;38.35
72106;SHT30;59975;47.646;18.318;2023-03-23T13:12:19;21.51;38.12
72106;SHT30;59975;47.646;18.318;2023-03-23T13:20:34;21.75;37.58
72106;SHT30;59975;47.646;18.318;2023-03-23T13:28:01;21.97;37.68
72106;SHT30;59975;47.646;18.318;2023-03-23T13:30:27;21.98;36.85
72106;SHT30;59975;47.646;18.318;2023-03-23T13:33:02;22.00;38.03
72106;SHT30;59975;47.646;18.318;2023-03-23T13:35:34;22.01;37.58
72106;SHT30;59975;47.646;18.318;2023-03-23T13:38:01;22.11;37.55
72106;SHT30;59975;47.646;18.318;2023-03-23T13:40:30;22.09;37.34
72106;SHT30;59975;47.646;18.318;2023-03-23T13:42:58;22.15;37.21
72106;SHT30;59975;47.646;18.318;2023-03-23T13:48:16;22.02;37.25
72106;SHT30;59975;47.646;18.318;2023-03-23T13:50:58;22.09;36.60
72106;SHT30;59975;47.646;18.318;2023-03-23T13:53:46;22.00;37.24
72106;SHT30;59975;47.646;18.318;2023-03-23T13:56:19;21.77;37.33
72106;SHT30;59975;47.646;18.318;2023-03-23T13:58:50;21.58;38.22
72106;SHT30;59975;47.646;18.318;2023-03-23T14:01:33;21.73;37.76
72106;SHT30;59975;47.646;18.318;2023-03-23T14:04:06;21.67;38.32
72106;SHT30;59975;47.646;18.318;2023-03-23T14:06:35;21.80;37.80
72106;SHT30;59975;47.646;18.318;2023-03-23T14:09:15;21.80;38.32
72106;SHT30;59975;47.646;18.318;2023-03-23T14:11:54;21.91;38.31
72106;SHT30;59975;47.646;18.318;2023-03-23T14:14:25;22.01;37.64
72106;SHT30;59975;47.646;18.318;2023-03-23T14:16:51;22.04;37.95
72106;SHT30;59975;47.646;18.318;2023-03-23T14:19:24;22.21;37.95
72106;SHT30;59975;47.646;18.318;2023-03-23T14:21:55;22.19;37.37
72106;SHT30;59975;47.646;18.318;2023-03-23T14:24:27;22.18;37.86
72106;SHT30;59975;47.646;18.318;2023-03-23T14:29:33;22.36;37.02
72106;SHT30;59975;47.646;18.318;2023-03-23T14:31:59;22.44;36.56
72106;SHT30;59975;47.646;18.318;2023-03-23T14:34:28;22.34;37.70
72106;SHT30;59975;47.646;18.318;2023-03-23T14:36:55;22.25;37.25
72106;SHT30;59975;47.646;18.318;2023-03-23T14:39:27;22.12;37.48
72106;SHT30;59975;47.646;18.318;2023-03-23T14:41:56;22.11;37.44
72106;SHT30;59975;47.646;18.318;2023-03-23T14:44:26;22.07;37.71
72106;SHT30;59975;47.646;18.318;2023-03-23T14:46:54;21.97;37.74
72106;SHT30;59975;47.646;18.318;2023-03-23T14:49:28;21.90;37.94
72106;SHT30;59975;47.646;18.318;2023-03-23T14:51:54;21.85;38.04
72106;SHT30;59975;47.646;18.318;2023-03-23T14:54:26;21.93;38.34
72106;SHT30;59975;47.646;18.318;2023-03-23T14:56:52;21.88;38.34
72106;SHT30;59975;47.646;18.318;2023-03-23T14:59:18;21.74;38.50
72106;SHT30;59975;47.646;18.318;2023-03-23T15:01:46;21.64;38.96
72106;SHT30;59975;47.646;18.318;2023-03-23T15:04:24;21.60;39.10
72106;SHT30;59975;47.646;18.318;2023-03-23T15:06:55;21.46;39.13
72106;SHT30;59975;47.646;18.318;2023-03-23T15:09:22;21.40;39.28
72106;SHT30;59975;47.646;18.318;2023-03-23T15:11:58;21.37;39.80
72106;SHT30;59975;47.646;18.318;2023-03-23T15:14:47;21.32;39.77
72106;SHT30;59975;47.646;18.318;2023-03-23T15:17:24;21.26;39.22
72106;SHT30;59975;47.646;18.318;2023-03-23T15:19:52;21.26;39.32
72106;SHT30;59975;47.646;18.318;2023-03-23T15:24:44;21.26;39.15
72106;SHT30;59975;47.646;18.318;2023-03-23T15:27:17;21.18;39.20
72106;SHT30;59975;47.646;18.318;2023-03-23T15:29:53;21.22;39.36
72106;SHT30;59975;47.646;18.318;2023-03-23T15:32:28;21.29;39.17
72106;SHT30;59975;47.646;18.318;2023-03-23T15:34:55;21.22;39.41
72106;SHT30;59975;47.646;18.318;2023-03-23T15:37:27;21.13;40.56
72106;SHT30;59975;47.646;18.318;2023-03-23T15:39:56;21.03;40.64
72106;SHT30;59975;47.646;18.318;2023-03-23T15:42:27;21.02;40.02
72106;SHT30;59975;47.646;18.318;2023-03-23T15:44:57;21.06;40.07
72106;SHT30;59975;47.646;18.318;2023-03-23T15:50:20;21.00;40.49
72106;SHT30;59975;47.646;18.318;2023-03-23T15:52:57;20.98;40.32
72106;SHT30;59975;47.646;18.318;2023-03-23T15:55:29;20.81;41.00
72106;SHT30;59975;47.646;18.318;2023-03-23T15:57:56;20.78;40.87
72106;SHT30;59975;47.646;18.318;2023-03-23T16:00:24;20.76;41.07
72106;SHT30;59975;47.646;18.318;2023-03-23T16:03:03;20.71;40.73
72106;SHT30;59975;47.646;18.318;2023-03-23T16:05:29;20.68;41.00
72106;SHT30;59975;47.646;18.318;2023-03-23T16:07:55;20.65;41.34
72106;SHT30;59975;47.646;18.318;2023-03-23T16:10:23;20.58;41.53
72106;SHT30;59975;47.646;18.318;2023-03-23T16:12:49;20.47;41.93
72106;SHT30;59975;47.646;18.318;2023-03-23T16:15:15;20.48;41.63
72106;SHT30;59975;47.646;18.318;2023-03-23T16:17:41;20.34;41.82
72106;SHT30;59975;47.646;18.318;2023-03-23T16:20:16;20.18;41.51
72106;SHT30;59975;47.646;18.318;2023-03-23T16:22:44;20.14;41.76
72106;SHT30;59975;47.646;18.318;2023-03-23T16:25:10;19.93;42.69
72106;SHT30;59975;47.646;18.318;2023-03-23T16:27:37;19.76;42.87
72106;SHT30;59975;47.646;18.318;2023-03-23T16:30:31;19.55;43.70
72106;SHT30;59975;47.646;18.318;2023-03-23T16:32:57;19.33;44.38
72106;SHT30;59975;47.646;18.318;2023-03-23T16:35:23;19.19;44.50
72106;SHT30;59975;47.646;18.318;2023-03-23T16:37:51;18.99;45.20
72106;SHT30;59975;47.646;18.318;2023-03-23T16:40:18;18.91;45.15
72106;SHT30;59975;47.646;18.318;2023-03-23T16:42:44;18.76;45.61
72106;SHT30;59975;47.646;18.318;2023-03-23T16:45:11;18.64;45.65
72106;SHT30;59975;47.646;18.318;2023-03-23T16:47:37;18.58;45.72
72106;SHT30;59975;47.646;18.318;2023-03-23T16:50:05;18.45;46.19
72106;SHT30;59975;47.646;18.318;2023-03-23T16:52:32;18.33;46.43
72106;SHT30;59975;47.646;18.318;2023-03-23T16:55:01;18.16;46.69
72106;SHT30;59975;47.646;18.318;2023-03-23T16:57:26;18.09;46.65
72106;SHT30;59975;47.646;18.318;2023-03-23T16:59:52;17.85;47.41
72106;SHT30;59975;47.646;18.318;2023-03-23T17:02:18;17.79;47.63
72106;SHT30;59975;47.646;18.318;2023-03-23T17:04:45;17.70;47.86
72106;SHT30;59975;47.646;18.318;2023-03-23T17:07:11;17.55;48.33
72106;SHT30;59975;47.646;18.318;2023-03-23T17:09:37;17.49;48.39
72106;SHT30;59975;47.646;18.318;2023-03-23T17:12:03;17.35;48.86
72106;SHT30;59975;47.646;18.318;2023-03-23T17:14:29;17.31;49.44
72106;SHT30;59975;47.646;18.318;2023-03-23T17:16:55;17.21;49.44
72106;SHT30;59975;47.646;18.318;2023-03-23T17:19:21;17.08;49.81
72106;SHT30;59975;47.646;18.318;2023-03-23T17:21:46;17.04;49.81
72106;SHT30;59975;47.646;18.318;2023-03-23T17:24:12;16.84;50.19
72106;SHT30;59975;47.646;18.318;2023-03-23T17:26:37;16.75;50.39
72106;SHT30;59975;47.646;18.318;2023-03-23T17:29:03;16.71;50.80
72106;SHT30;59975;47.646;18.318;2023-03-23T17:31:29;16.70;50.03
72106;SHT30;59975;47.646;18.318;2023-03-23T17:33:54;16.73;49.84
72106;SHT30;59975;47.646;18.318;2023-03-23T17:36:21;16.68;49.81
72106;SHT30;59975;47.646;18.318;2023-03-23T17:38:47;16.70;49.89
72106;SHT30;59975;47.646;18.318;2023-03-23T17:41:13;16.70;49.83
72106;SHT30;59975;47.646;18.318;2023-03-23T17:43:39;16.68;49.88
72106;SHT30;59975;47.646;18.318;2023-03-23T17:46:06;16.64;49.97
72106;SHT30;59975;47.646;18.318;2023-03-23T17:48:32;16.64;50.13
72106;SHT30;59975;47.646;18.318;2023-03-23T17:50:58;16.64;50.03
72106;SHT30;59975;47.646;18.318;2023-03-23T17:53:28;16.56;50.30
72106;SHT30;59975;47.646;18.318;2023-03-23T17:55:55;16.46;50.70
72106;SHT30;59975;47.646;18.318;2023-03-23T17:58:21;16.34;51.15
72106;SHT30;59975;47.646;18.318;2023-03-23T18:00:47;16.17;51.61
72106;SHT30;59975;47.646;18.318;2023-03-23T18:03:12;16.10;51.96
72106;SHT30;59975;47.646;18.318;2023-03-23T18:05:38;16.02;52.15
72106;SHT30;59975;47.646;18.318;2023-03-23T18:08:07;15.93;52.52
72106;SHT30;59975;47.646;18.318;2023-03-23T18:10:34;15.93;52.57
72106;SHT30;59975;47.646;18.318;2023-03-23T18:13:04;15.89;52.70
72106;SHT30;59975;47.646;18.318;2023-03-23T18:15:30;15.93;52.89
72106;SHT30;59975;47.646;18.318;2023-03-23T18:17:58;15.98;52.91
72106;SHT30;59975;47.646;18.318;2023-03-23T18:20:25;15.93;53.09
72106;SHT30;59975;47.646;18.318;2023-03-23T18:22:51;15.90;53.53
72106;SHT30;59975;47.646;18.318;2023-03-23T18:25:16;15.82;53.79
72106;SHT30;59975;47.646;18.318;2023-03-23T18:27:42;15.68;53.93
72106;SHT30;59975;47.646;18.318;2023-03-23T18:30:09;15.70;54.05
72106;SHT30;59975;47.646;18.318;2023-03-23T18:32:36;15.77;53.90
72106;SHT30;59975;47.646;18.318;2023-03-23T18:35:02;15.82;53.79
72106;SHT30;59975;47.646;18.318;2023-03-23T18:37:28;15.81;54.04
72106;SHT30;59975;47.646;18.318;2023-03-23T18:39:54;15.73;54.24
72106;SHT30;59975;47.646;18.318;2023-03-23T18:42:20;15.68;54.62
72106;SHT30;59975;47.646;18.318;2023-03-23T18:44:45;15.68;54.76
72106;SHT30;59975;47.646;18.318;2023-03-23T18:47:11;15.54;55.31
72106;SHT30;59975;47.646;18.318;2023-03-23T18:49:37;15.44;55.42
72106;SHT30;59975;47.646;18.318;2023-03-23T18:52:03;15.42;55.58
72106;SHT30;59975;47.646;18.318;2023-03-23T18:54:28;15.37;55.63
72106;SHT30;59975;47.646;18.318;2023-03-23T18:56:57;15.37;55.47
72106;SHT30;59975;47.646;18.318;2023-03-23T18:59:23;15.31;55.67
72106;SHT30;59975;47.646;18.318;2023-03-23T19:01:50;15.27;55.73
72106;SHT30;59975;47.646;18.318;2023-03-23T19:04:17;15.30;55.47
72106;SHT30;59975;47.646;18.318;2023-03-23T19:06:47;15.30;55.57
72106;SHT30;59975;47.646;18.318;2023-03-23T19:09:14;15.21;55.84
72106;SHT30;59975;47.646;18.318;2023-03-23T19:11:40;15.12;55.97
72106;SHT30;59975;47.646;18.318;2023-03-23T19:14:05;15.04;56.20
72106;SHT30;59975;47.646;18.318;2023-03-23T19:16:32;15.01;56.23
72106;SHT30;59975;47.646;18.318;2023-03-23T19:19:00;15.03;55.85
72106;SHT30;59975;47.646;18.318;2023-03-23T19:21:26;15.00;56.08
72106;SHT30;59975;47.646;18.318;2023-03-23T19:23:53;14.91;56.34
72106;SHT30;59975;47.646;18.318;2023-03-23T19:26:26;14.83;56.46
72106;SHT30;59975;47.646;18.318;2023-03-23T19:28:52;14.83;56.64
72106;SHT30;59975;47.646;18.318;2023-03-23T19:31:18;14.87;56.34
72106;SHT30;59975;47.646;18.318;2023-03-23T19:33:47;14.79;56.72
72106;SHT30;59975;47.646;18.318;2023-03-23T19:36:13;14.76;56.66
72106;SHT30;59975;47.646;18.318;2023-03-23T19:38:38;14.70;56.77
72106;SHT30;59975;47.646;18.318;2023-03-23T19:41:04;14.67;56.93
72106;SHT30;59975;47.646;18.318;2023-03-23T19:43:30;14.67;56.98
72106;SHT30;59975;47.646;18.318;2023-03-23T19:45:55;14.62;56.95
72106;SHT30;59975;47.646;18.318;2023-03-23T19:48:21;14.56;57.06
72106;SHT30;59975;47.646;18.318;2023-03-23T19:50:49;14.52;57.24
72106;SHT30;59975;47.646;18.318;2023-03-23T19:53:17;14.53;57.35
72106;SHT30;59975;47.646;18.318;2023-03-23T19:55:43;14.44;57.36
72106;SHT30;59975;47.646;18.318;2023-03-23T19:58:08;14.49;57.31
72106;SHT30;59975;47.646;18.318;2023-03-23T20:00:35;14.59;56.93
72106;SHT30;59975;47.646;18.318;2023-03-23T20:03:01;14.52;57.26
72106;SHT30;59975;47.646;18.318;2023-03-23T20:05:28;14.52;57.43
72106;SHT30;59975;47.646;18.318;2023-03-23T20:07:54;14.50;57.35
72106;SHT30;59975;47.646;18.318;2023-03-23T20:10:20;14.44;57.54
72106;SHT30;59975;47.646;18.318;2023-03-23T20:12:46;14.43;57.36